Terminal Aerodrome Forecast
Issued by NWS Wichita, KS

Home | Current Version | Previous Version | Text Only | Print | Product List | Glossary Off
Versions: 1 2 3 4 5 6 7 8 9 10 11 12

813
FTUS43 KICT 191123 AAC
TAFICT
TAF AMD
KICT 191123Z 1911/2006 18009KT P6SM FEW250
     FM191700 18014G20KT P6SM SKC
     FM200100 18011KT P6SM SKC=

USA.gov is the U.S. government's official web portal to all federal, state and local government web resources and services.